Natchez Express — WDF9419 — position and weather

sailwx.info

Track history (hours):
 
Tides and Currents Weather Stations Pressure Air Temp Water Temp Dewpoint Dewpoint Depression Visibility Wind Speed Wind Dir Waves Ship Positions

Natchez Express

Owner: Genesis Marine, LLC, Houston, TX. More information available from US FCC via Universal Licensing System and Coast Guard Vessel Documentation Center.

Last reported at 2017-Nov-17 14:05 UTC. Time now 2017-Nov-20 23:06 UTC.
Position N 29°30' W 094°53'.

Length 26 m; draft 3 m.

Type: Other ship. MMSI: 367504960.

Date/timePositionNaut miles runAvg speedWind from/ knotsBaromVisibWave heightAir tempDewpointWater temp
2017-Nov-17 14:05N 29°30' W 094°53'1 6.2
2017-Nov-17 13:57N 29°31' W 094°53'3 5.9
2017-Nov-17 13:30N 29°33' W 094°55'3 5.8
2017-Nov-17 13:00N 29°36' W 094°57'3 5.5
2017-Nov-17 12:30N 29°38' W 094°58'3 5.5
2017-Nov-17 12:00N 29°41' W 094°59'2 4.9
2017-Nov-17 11:30N 29°42' W 095°01'2 3.6
2017-Nov-17 10:58N 29°44' W 095°02'2 4.0
2017-Nov-17 10:27N 29°45' W 095°04'1 3.0
2017-Nov-17 10:00N 29°45' W 095°06'0 0.7
2017-Nov-17 09:23N 29°45' W 095°06'0 1.0
2017-Nov-17 08:59N 29°45' W 095°06'0 0.2
2017-Nov-17 08:21N 29°45' W 095°06'0 0.0
2017-Nov-17 07:59N 29°45' W 095°06'0 0.0
2017-Nov-17 07:28N 29°45' W 095°06'0 0.0
2017-Nov-17 06:56N 29°45' W 095°06'0 0.0
2017-Nov-17 06:26N 29°45' W 095°06'0 0.0
2017-Nov-17 05:59N 29°45' W 095°06'0 0.0
2017-Nov-17 05:30N 29°45' W 095°06'0 0.0
2017-Nov-17 05:00N 29°45' W 095°06'0 0.0
2017-Nov-17 04:28N 29°45' W 095°06'0 0.0
2017-Nov-17 03:47N 29°45' W 095°06'0 0.0
2017-Nov-17 03:30N 29°45' W 095°06'0 0.0
2017-Nov-17 02:58N 29°45' W 095°06'0 0.0
2017-Nov-17 02:30N 29°45' W 095°06'0 0.0
2017-Nov-17 01:58N 29°45' W 095°06'0 0.0
2017-Nov-17 01:30N 29°45' W 095°06'0 0.0
2017-Nov-17 01:00N 29°45' W 095°06'0 0.0
2017-Nov-17 00:30N 29°45' W 095°06'0 0.0
2017-Nov-17 00:00N 29°45' W 095°06'0 0.0
2017-Nov-16 23:30N 29°45' W 095°06'0 0.0
2017-Nov-16 23:00N 29°45' W 095°06'0 0.0
2017-Nov-16 22:30N 29°45' W 095°06'0 0.0
2017-Nov-16 21:56N 29°45' W 095°06'0 0.0
2017-Nov-16 21:30N 29°45' W 095°06'0 0.0
2017-Nov-16 20:59N 29°45' W 095°06'0 0.0
2017-Nov-16 20:29N 29°45' W 095°06'0 0.0
2017-Nov-16 20:00N 29°45' W 095°06'0 0.0
2017-Nov-16 19:29N 29°45' W 095°06'0 0.0
2017-Nov-16 18:59N 29°45' W 095°06'0 0.0
2017-Nov-16 18:30N 29°45' W 095°06'0 0.0
2017-Nov-16 18:00N 29°45' W 095°06'0 0.0
2017-Nov-16 17:29N 29°45' W 095°06'0 0.0
2017-Nov-16 16:23N 29°45' W 095°06'0 0.0
2017-Nov-16 15:55N 29°45' W 095°06'0 0.0
2017-Nov-16 15:30N 29°45' W 095°06'0 0.0
2017-Nov-16 15:00N 29°45' W 095°06'0 0.0
2017-Nov-16 14:29N 29°45' W 095°06'0 0.0
2017-Nov-16 14:00N 29°45' W 095°06'0 0.0
2017-Nov-16 13:30N 29°45' W 095°06'0 0.0
2017-Nov-16 12:58N 29°45' W 095°06'0 0.0
2017-Nov-16 12:30N 29°45' W 095°06'0 0.0
2017-Nov-16 11:59N 29°45' W 095°06'0 0.0
2017-Nov-16 11:29N 29°45' W 095°06'0 0.0
2017-Nov-16 11:00N 29°45' W 095°06'0 0.0
2017-Nov-16 10:29N 29°45' W 095°06'0 0.0
2017-Nov-16 09:33N 29°45' W 095°06'0 0.1
2017-Nov-16 09:30N 29°45' W 095°06'0 0.3
2017-Nov-16 09:00N 29°45' W 095°06'1 1.0
2017-Nov-16 08:27N 29°45' W 095°06'2 0.8
2017-Nov-16 06:28N 29°47' W 095°06'1 2.4
2017-Nov-16 05:57N 29°46' W 095°05'0 0.5
2017-Nov-16 05:21N 29°46' W 095°05'1 3.2
2017-Nov-16 04:57N 29°47' W 095°06'0 0.0
2017-Nov-16 04:29N 29°47' W 095°06'0 0.0
2017-Nov-16 03:56N 29°47' W 095°06'0 0.0
2017-Nov-16 03:28N 29°47' W 095°06'1 1.1
2017-Nov-16 02:50N 29°46' W 095°06'2 0.6
2017-Nov-16 00:20N 29°47' W 095°04'1 4.3
2017-Nov-16 00:00N 29°46' W 095°05'3 4.5
2017-Nov-15 23:14N 29°44' W 095°09'0 0.4
2017-Nov-15 23:00N 29°44' W 095°09'2 4.3
2017-Nov-15 22:30N 29°45' W 095°06'2 4.0
2017-Nov-15 22:00N 29°46' W 095°04'3 5.2
2017-Nov-15 21:30N 29°44' W 095°02'2 4.7
2017-Nov-15 21:00N 29°42' W 095°00'2 5.0
2017-Nov-15 20:30N 29°40' W 094°59'3 5.8
2017-Nov-15 20:00N 29°38' W 094°58'3 5.7
2017-Nov-15 19:30N 29°35' W 094°56'3 5.8
2017-Nov-15 19:00N 29°33' W 094°54'3 5.6
2017-Nov-15 18:29N 29°30' W 094°52'  
Track history (hours):
 
Tides and Currents Weather Stations Pressure Air Temp Water Temp Dewpoint Dewpoint Depression Visibility Wind Speed Wind Dir Waves Ship Positions

Natchez Express

Owner: Genesis Marine, LLC, Houston, TX. More information available from US FCC via Universal Licensing System and Coast Guard Vessel Documentation Center.

Last reported at 2017-Nov-17 14:05 UTC. Time now 2017-Nov-20 23:06 UTC.
Position N 29°30' W 094°53'.

Length 26 m; draft 3 m.

Type: Other ship. MMSI: 367504960.

Date/timePositionNaut miles runAvg speedWind from/ knotsBaromVisibWave heightAir tempDewpointWater temp
2017-Nov-17 14:05N 29°30' W 094°53'1 6.2
2017-Nov-17 13:57N 29°31' W 094°53'3 5.9
2017-Nov-17 13:30N 29°33' W 094°55'3 5.8
2017-Nov-17 13:00N 29°36' W 094°57'3 5.5
2017-Nov-17 12:30N 29°38' W 094°58'3 5.5
2017-Nov-17 12:00N 29°41' W 094°59'2 4.9
2017-Nov-17 11:30N 29°42' W 095°01'2 3.6
2017-Nov-17 10:58N 29°44' W 095°02'2 4.0
2017-Nov-17 10:27N 29°45' W 095°04'1 3.0
2017-Nov-17 10:00N 29°45' W 095°06'0 0.7
2017-Nov-17 09:23N 29°45' W 095°06'0 1.0
2017-Nov-17 08:59N 29°45' W 095°06'0 0.2
2017-Nov-17 08:21N 29°45' W 095°06'0 0.0
2017-Nov-17 07:59N 29°45' W 095°06'0 0.0
2017-Nov-17 07:28N 29°45' W 095°06'0 0.0
2017-Nov-17 06:56N 29°45' W 095°06'0 0.0
2017-Nov-17 06:26N 29°45' W 095°06'0 0.0
2017-Nov-17 05:59N 29°45' W 095°06'0 0.0
2017-Nov-17 05:30N 29°45' W 095°06'0 0.0
2017-Nov-17 05:00N 29°45' W 095°06'0 0.0
2017-Nov-17 04:28N 29°45' W 095°06'0 0.0
2017-Nov-17 03:47N 29°45' W 095°06'0 0.0
2017-Nov-17 03:30N 29°45' W 095°06'0 0.0
2017-Nov-17 02:58N 29°45' W 095°06'0 0.0
2017-Nov-17 02:30N 29°45' W 095°06'0 0.0
2017-Nov-17 01:58N 29°45' W 095°06'0 0.0
2017-Nov-17 01:30N 29°45' W 095°06'0 0.0
2017-Nov-17 01:00N 29°45' W 095°06'0 0.0
2017-Nov-17 00:30N 29°45' W 095°06'0 0.0
2017-Nov-17 00:00N 29°45' W 095°06'0 0.0
2017-Nov-16 23:30N 29°45' W 095°06'0 0.0
2017-Nov-16 23:00N 29°45' W 095°06'0 0.0
2017-Nov-16 22:30N 29°45' W 095°06'0 0.0
2017-Nov-16 21:56N 29°45' W 095°06'0 0.0
2017-Nov-16 21:30N 29°45' W 095°06'0 0.0
2017-Nov-16 20:59N 29°45' W 095°06'0 0.0
2017-Nov-16 20:29N 29°45' W 095°06'0 0.0
2017-Nov-16 20:00N 29°45' W 095°06'0 0.0
2017-Nov-16 19:29N 29°45' W 095°06'0 0.0
2017-Nov-16 18:59N 29°45' W 095°06'0 0.0
2017-Nov-16 18:30N 29°45' W 095°06'0 0.0
2017-Nov-16 18:00N 29°45' W 095°06'0 0.0
2017-Nov-16 17:29N 29°45' W 095°06'0 0.0
2017-Nov-16 16:23N 29°45' W 095°06'0 0.0
2017-Nov-16 15:55N 29°45' W 095°06'0 0.0
2017-Nov-16 15:30N 29°45' W 095°06'0 0.0
2017-Nov-16 15:00N 29°45' W 095°06'0 0.0
2017-Nov-16 14:29N 29°45' W 095°06'0 0.0
2017-Nov-16 14:00N 29°45' W 095°06'0 0.0
2017-Nov-16 13:30N 29°45' W 095°06'0 0.0
2017-Nov-16 12:58N 29°45' W 095°06'0 0.0
2017-Nov-16 12:30N 29°45' W 095°06'0 0.0
2017-Nov-16 11:59N 29°45' W 095°06'0 0.0
2017-Nov-16 11:29N 29°45' W 095°06'0 0.0
2017-Nov-16 11:00N 29°45' W 095°06'0 0.0
2017-Nov-16 10:29N 29°45' W 095°06'0 0.0
2017-Nov-16 09:33N 29°45' W 095°06'0 0.1
2017-Nov-16 09:30N 29°45' W 095°06'0 0.3
2017-Nov-16 09:00N 29°45' W 095°06'1 1.0
2017-Nov-16 08:27N 29°45' W 095°06'2 0.8
2017-Nov-16 06:28N 29°47' W 095°06'1 2.4
2017-Nov-16 05:57N 29°46' W 095°05'0 0.5
2017-Nov-16 05:21N 29°46' W 095°05'1 3.2
2017-Nov-16 04:57N 29°47' W 095°06'0 0.0
2017-Nov-16 04:29N 29°47' W 095°06'0 0.0
2017-Nov-16 03:56N 29°47' W 095°06'0 0.0
2017-Nov-16 03:28N 29°47' W 095°06'1 1.1
2017-Nov-16 02:50N 29°46' W 095°06'2 0.6
2017-Nov-16 00:20N 29°47' W 095°04'1 4.3
2017-Nov-16 00:00N 29°46' W 095°05'3 4.5
2017-Nov-15 23:14N 29°44' W 095°09'0 0.4
2017-Nov-15 23:00N 29°44' W 095°09'2 4.3
2017-Nov-15 22:30N 29°45' W 095°06'2 4.0
2017-Nov-15 22:00N 29°46' W 095°04'3 5.2
2017-Nov-15 21:30N 29°44' W 095°02'2 4.7
2017-Nov-15 21:00N 29°42' W 095°00'2 5.0
2017-Nov-15 20:30N 29°40' W 094°59'3 5.8
2017-Nov-15 20:00N 29°38' W 094°58'3 5.7
2017-Nov-15 19:30N 29°35' W 094°56'3 5.8
2017-Nov-15 19:00N 29°33' W 094°54'3 5.6
2017-Nov-15 18:29N 29°30' W 094°52'  

Dump ship's entire track history